Time;durP1;ratioP1;P1;durP2;ratioP2;P2;SDS_P1;SDS_P2;PMS_P1;PMS_P2;Temp;Humidity;BMP_temperature;BMP_pressure;BME280_temperature;BME280_humidity;BME280_pressure;Samples;Min_cycle;Max_cycle;Signal;HPM_P1;HPM_P2
2024/03/06 00:01:35;;;;;;;16.33;12.43;;;6.70;99.90;;;;;;5024989;28;20450;-74
2024/03/06 00:04:22;;;;;;;18.50;12.53;;;6.70;99.90;;;;;;5026243;28;20511;-74
2024/03/06 00:07:08;;;;;;;17.98;13.95;;;6.60;99.90;;;;;;5025780;28;20548;-75
2024/03/06 00:09:54;;;;;;;16.73;12.27;;;6.50;99.90;;;;;;5028143;28;20294;-75
2024/03/06 00:12:40;;;;;;;18.20;13.00;;;6.50;99.90;;;;;;5021252;28;20258;-74
2024/03/06 00:15:27;;;;;;;14.80;12.27;;;6.50;99.90;;;;;;5025401;28;20520;-71
2024/03/06 00:18:12;;;;;;;17.57;12.60;;;6.40;99.90;;;;;;5026334;28;21105;-73
2024/03/06 00:21:00;;;;;;;16.63;14.40;;;6.40;99.90;;;;;;5021259;28;20843;-74
2024/03/06 00:23:46;;;;;;;20.13;13.33;;;6.30;99.90;;;;;;5023562;28;20528;-75
2024/03/06 00:26:31;;;;;;;19.15;14.30;;;6.30;99.90;;;;;;5026594;28;20516;-74
2024/03/06 00:29:17;;;;;;;17.33;14.50;;;6.30;99.90;;;;;;5023869;28;20229;-74
2024/03/06 00:32:03;;;;;;;18.17;13.63;;;6.20;99.90;;;;;;5025806;28;20207;-73
2024/03/06 00:34:49;;;;;;;15.23;12.68;;;6.20;99.90;;;;;;5024013;28;20428;-74
2024/03/06 00:37:36;;;;;;;17.20;12.48;;;6.10;99.90;;;;;;5025156;28;20228;-74
2024/03/06 00:40:21;;;;;;;17.53;12.40;;;6.00;99.90;;;;;;5021588;28;20575;-74
2024/03/06 00:43:07;;;;;;;16.90;12.63;;;6.00;99.90;;;;;;5023721;28;20450;-74
2024/03/06 00:45:52;;;;;;;14.40;12.20;;;6.00;99.90;;;;;;5024738;28;20548;-74
2024/03/06 00:48:38;;;;;;;15.93;11.73;;;5.90;99.90;;;;;;5028590;28;20478;-74
2024/03/06 00:51:25;;;;;;;13.68;10.65;;;5.90;99.90;;;;;;5029905;28;20209;-74
2024/03/06 00:54:12;;;;;;;12.87;10.77;;;5.80;99.90;;;;;;5021208;28;20206;-74
2024/03/06 00:56:57;;;;;;;13.85;10.63;;;5.80;99.90;;;;;;5027100;28;20444;-74
2024/03/06 00:59:43;;;;;;;14.47;11.00;;;5.80;99.90;;;;;;5022196;28;20618;-74
2024/03/06 01:02:29;;;;;;;13.53;10.60;;;5.80;99.90;;;;;;5023839;28;20581;-74
2024/03/06 01:05:15;;;;;;;14.30;11.02;;;5.70;99.90;;;;;;5027336;28;20450;-74
2024/03/06 01:08:01;;;;;;;14.87;10.43;;;5.70;99.90;;;;;;5023369;28;20233;-74
2024/03/06 01:10:48;;;;;;;11.82;9.88;;;5.70;99.90;;;;;;5021473;28;20464;-74
2024/03/06 01:13:34;;;;;;;12.57;10.73;;;5.70;99.90;;;;;;5023726;28;20405;-74
2024/03/06 01:16:20;;;;;;;14.15;10.05;;;5.70;99.90;;;;;;5023086;28;20381;-74
2024/03/06 01:19:05;;;;;;;14.18;11.27;;;5.60;99.90;;;;;;5022913;28;20270;-74
2024/03/06 01:21:51;;;;;;;13.60;9.67;;;5.50;99.90;;;;;;5026847;28;20212;-72
2024/03/06 01:24:37;;;;;;;12.45;10.05;;;5.60;99.90;;;;;;5020684;28;20501;-74
2024/03/06 01:27:24;;;;;;;12.45;9.88;;;5.60;99.90;;;;;;5034609;28;20256;-72
2024/03/06 01:30:10;;;;;;;12.57;9.40;;;5.60;99.90;;;;;;5031245;28;20252;-71
2024/03/06 01:32:56;;;;;;;11.33;10.03;;;5.60;99.90;;;;;;5026117;28;20530;-74
2024/03/06 01:35:42;;;;;;;14.03;10.30;;;5.60;99.90;;;;;;5022112;28;20953;-73
2024/03/06 01:38:27;;;;;;;11.73;10.00;;;5.50;99.90;;;;;;5027174;28;20549;-75
2024/03/06 01:41:13;;;;;;;14.88;10.60;;;5.50;99.90;;;;;;5024241;28;20693;-73
2024/03/06 01:44:00;;;;;;;12.68;9.70;;;5.50;99.90;;;;;;5028942;28;20215;-73
2024/03/06 01:46:46;;;;;;;11.05;9.35;;;5.60;99.90;;;;;;5023336;28;20286;-74
2024/03/06 01:49:33;;;;;;;12.10;9.93;;;5.60;99.90;;;;;;5031270;28;20214;-74
2024/03/06 01:52:22;;;;;;;10.63;9.48;;;5.60;99.90;;;;;;5027305;28;20757;-73
2024/03/06 01:55:10;;;;;;;14.38;10.20;;;5.50;99.90;;;;;;5022257;28;20220;-72
2024/03/06 01:57:55;;;;;;;14.00;10.60;;;5.40;99.90;;;;;;5025463;28;20229;-72
2024/03/06 02:00:43;;;;;;;11.97;10.73;;;5.50;99.90;;;;;;5027295;28;20198;-71
2024/03/06 02:03:30;;;;;;;11.45;9.77;;;5.40;99.90;;;;;;5028575;28;20516;-75
2024/03/06 02:06:19;;;;;;;16.33;11.10;;;5.40;99.90;;;;;;5025683;28;20205;-71
2024/03/06 02:09:06;;;;;;;18.17;12.70;;;5.30;99.90;;;;;;5027897;28;20234;-74
2024/03/06 02:11:51;;;;;;;16.88;12.63;;;5.30;99.90;;;;;;5024509;28;20210;-73
2024/03/06 02:14:37;;;;;;;12.65;10.30;;;5.20;99.90;;;;;;5022789;28;20697;-74
2024/03/06 02:17:26;;;;;;;12.73;9.15;;;5.30;99.90;;;;;;5021990;28;20198;-75
2024/03/06 02:20:15;;;;;;;12.18;8.95;;;5.30;99.90;;;;;;5020131;28;20810;-73
2024/03/06 02:23:02;;;;;;;15.02;11.07;;;5.30;99.90;;;;;;5026849;28;20260;-74
2024/03/06 02:25:48;;;;;;;13.55;10.85;;;5.30;99.90;;;;;;5024517;28;20712;-74
2024/03/06 02:28:34;;;;;;;15.85;13.93;;;5.20;99.90;;;;;;5028386;28;20233;-74
2024/03/06 02:31:21;;;;;;;14.65;11.82;;;5.30;99.90;;;;;;5023368;28;20292;-72
2024/03/06 02:34:07;;;;;;;13.75;10.90;;;5.30;99.90;;;;;;5027623;28;20678;-74
2024/03/06 02:36:52;;;;;;;13.32;10.10;;;5.40;99.90;;;;;;5024074;28;20281;-73
2024/03/06 02:39:39;;;;;;;18.27;12.43;;;5.30;99.90;;;;;;5026400;28;20233;-75
2024/03/06 02:42:25;;;;;;;14.75;10.93;;;5.30;99.90;;;;;;5024996;28;20231;-73
2024/03/06 02:45:10;;;;;;;13.73;11.93;;;5.30;99.90;;;;;;5023958;28;20343;-74
2024/03/06 02:47:56;;;;;;;15.70;12.68;;;5.20;99.90;;;;;;5028555;28;20231;-74
2024/03/06 02:50:42;;;;;;;16.60;12.87;;;5.20;99.90;;;;;;5024811;28;20215;-74
2024/03/06 02:53:28;;;;;;;22.77;13.32;;;5.30;99.90;;;;;;5024892;28;21084;-75
2024/03/06 02:56:18;;;;;;;14.82;11.77;;;5.30;99.90;;;;;;5023069;28;20636;-71
2024/03/06 02:59:04;;;;;;;18.35;12.70;;;5.20;99.90;;;;;;5023999;28;20743;-74
2024/03/06 03:01:50;;;;;;;14.40;12.23;;;5.30;99.90;;;;;;5020936;28;20333;-75
2024/03/06 03:04:35;;;;;;;19.77;13.85;;;5.40;99.90;;;;;;5026126;28;21058;-74
2024/03/06 03:07:21;;;;;;;14.40;11.70;;;5.50;99.90;;;;;;5025117;28;20250;-74
2024/03/06 03:10:10;;;;;;;19.80;11.68;;;5.60;99.90;;;;;;5024776;28;20453;-73
2024/03/06 03:12:57;;;;;;;16.92;13.15;;;5.60;99.90;;;;;;5023394;28;20208;-73
2024/03/06 03:15:43;;;;;;;19.63;13.80;;;5.60;99.90;;;;;;5021701;28;20672;-75
2024/03/06 03:18:28;;;;;;;19.40;13.20;;;5.60;99.90;;;;;;5027217;28;20484;-74
2024/03/06 03:21:14;;;;;;;19.80;13.25;;;5.60;99.90;;;;;;5031441;28;21013;-74
2024/03/06 03:24:00;;;;;;;15.55;11.75;;;5.60;99.90;;;;;;5029416;28;20309;-74
2024/03/06 03:26:45;;;;;;;24.58;14.10;;;5.60;99.90;;;;;;5030081;28;20225;-71
2024/03/06 03:29:32;;;;;;;13.25;10.95;;;5.50;99.90;;;;;;5027464;28;20686;-72
2024/03/06 03:32:18;;;;;;;19.23;12.48;;;5.50;99.90;;;;;;5027629;28;20299;-73
2024/03/06 03:35:05;;;;;;;15.35;12.15;;;5.50;99.90;;;;;;5026279;28;20225;-74
2024/03/06 03:37:51;;;;;;;17.05;10.63;;;5.50;99.90;;;;;;5025002;28;20242;-74
2024/03/06 03:40:37;;;;;;;19.23;11.47;;;5.50;99.90;;;;;;5028556;28;20230;-73
2024/03/06 03:43:22;;;;;;;17.35;11.50;;;5.40;99.90;;;;;;5025340;28;20833;-74
2024/03/06 03:46:10;;;;;;;17.60;12.80;;;5.30;99.90;;;;;;5030420;28;20209;-75
2024/03/06 03:48:55;;;;;;;17.05;12.00;;;5.30;99.90;;;;;;5027365;28;20583;-72
2024/03/06 03:51:42;;;;;;;23.67;14.30;;;5.40;99.90;;;;;;5021410;28;20215;-73
2024/03/06 03:54:27;;;;;;;21.10;12.40;;;5.20;99.90;;;;;;5026328;28;20215;-73
2024/03/06 03:57:14;;;;;;;20.50;14.35;;;5.30;99.90;;;;;;5026498;28;20204;-75
2024/03/06 03:59:59;;;;;;;24.33;14.73;;;5.30;99.90;;;;;;5025391;28;20249;-73
2024/03/06 04:02:46;;;;;;;21.15;15.00;;;5.50;99.90;;;;;;5028503;28;20980;-73
2024/03/06 04:05:32;;;;;;;23.83;14.00;;;5.40;99.90;;;;;;5029951;28;20214;-72
2024/03/06 04:08:18;;;;;;;20.17;15.80;;;5.40;99.90;;;;;;5027794;28;20222;-75
2024/03/06 04:11:04;;;;;;;22.87;14.43;;;5.40;99.90;;;;;;5027733;28;20261;-73
2024/03/06 04:13:50;;;;;;;77.97;18.17;;;5.50;99.90;;;;;;5029279;28;20464;-76
2024/03/06 04:16:36;;;;;;;33.73;14.90;;;5.60;99.90;;;;;;5029127;28;20303;-74
2024/03/06 04:19:22;;;;;;;36.83;14.80;;;5.50;99.90;;;;;;5026965;28;20484;-72
2024/03/06 04:22:08;;;;;;;37.30;15.90;;;5.40;99.90;;;;;;5027684;28;20448;-71
2024/03/06 04:24:55;;;;;;;44.70;16.42;;;5.30;99.90;;;;;;5029635;28;20213;-73
2024/03/06 04:27:41;;;;;;;50.88;16.08;;;5.30;99.90;;;;;;5028620;28;20733;-73
2024/03/06 04:30:26;;;;;;;36.87;14.37;;;5.30;99.90;;;;;;5027649;28;20211;-74
2024/03/06 04:33:14;;;;;;;51.33;15.32;;;5.10;99.90;;;;;;5024796;28;20441;-72
2024/03/06 04:36:05;;;;;;;21.52;14.95;;;5.00;99.90;;;;;;5029628;28;20248;-75
2024/03/06 04:38:51;;;;;;;21.88;16.50;;;5.10;99.90;;;;;;5024618;28;20237;-72
2024/03/06 04:41:37;;;;;;;20.88;14.73;;;5.20;99.90;;;;;;5030136;28;20222;-73
2024/03/06 04:44:22;;;;;;;29.55;15.07;;;5.30;99.90;;;;;;5023754;28;20218;-73
2024/03/06 04:47:08;;;;;;;29.02;15.00;;;5.20;99.90;;;;;;5029697;28;20206;-72
2024/03/06 04:49:54;;;;;;;30.88;14.35;;;5.20;99.90;;;;;;5026617;28;20250;-72
2024/03/06 04:52:41;;;;;;;24.13;13.60;;;5.20;99.90;;;;;;5025954;28;20214;-72
2024/03/06 04:55:26;;;;;;;44.75;13.80;;;5.20;99.90;;;;;;5026127;28;21008;-73
2024/03/06 04:58:12;;;;;;;60.15;13.48;;;5.10;99.90;;;;;;5025313;28;20365;-73
2024/03/06 05:00:58;;;;;;;16.15;11.93;;;5.10;99.90;;;;;;5025634;28;20737;-73
2024/03/06 05:03:43;;;;;;;16.65;12.38;;;5.10;99.90;;;;;;5028204;28;20700;-72
2024/03/06 05:06:29;;;;;;;21.83;12.88;;;5.10;99.90;;;;;;5026430;28;20206;-74
2024/03/06 05:09:17;;;;;;;17.15;12.90;;;5.10;99.90;;;;;;5023466;28;20232;-73
2024/03/06 05:12:03;;;;;;;35.97;14.33;;;5.20;99.90;;;;;;5024520;28;20622;-72
2024/03/06 05:14:48;;;;;;;15.98;12.75;;;5.20;99.90;;;;;;5027990;28;20539;-72
2024/03/06 05:17:34;;;;;;;15.70;12.98;;;5.20;99.90;;;;;;5025360;28;20258;-73
2024/03/06 05:20:20;;;;;;;19.10;12.27;;;5.20;99.90;;;;;;5027874;28;20280;-72
2024/03/06 05:23:06;;;;;;;40.30;14.13;;;5.20;99.90;;;;;;5025595;28;20203;-73
2024/03/06 05:25:53;;;;;;;39.95;13.95;;;5.20;99.90;;;;;;5024084;28;20205;-73
2024/03/06 05:28:39;;;;;;;19.85;14.63;;;5.10;99.90;;;;;;5026741;28;20249;-73
2024/03/06 05:31:25;;;;;;;30.55;15.13;;;5.10;99.90;;;;;;5026162;28;20214;-72
2024/03/06 05:34:10;;;;;;;19.35;13.77;;;5.10;99.90;;;;;;5027645;28;20207;-73
2024/03/06 05:36:56;;;;;;;62.15;13.13;;;5.10;99.90;;;;;;5028258;28;20571;-73
2024/03/06 05:39:42;;;;;;;14.75;12.75;;;5.10;99.90;;;;;;5025528;28;20222;-75
2024/03/06 05:42:30;;;;;;;19.15;11.40;;;5.20;99.90;;;;;;5025408;28;20201;-72
2024/03/06 05:45:16;;;;;;;50.45;11.55;;;5.20;99.90;;;;;;5024710;28;20213;-73
2024/03/06 05:48:03;;;;;;;32.90;14.70;;;5.20;99.90;;;;;;5025552;28;20257;-72
2024/03/06 05:50:49;;;;;;;45.83;15.02;;;5.30;99.90;;;;;;5023261;28;20245;-71
2024/03/06 05:53:38;;;;;;;24.42;13.13;;;5.30;99.90;;;;;;5024373;28;20241;-72
2024/03/06 05:56:24;;;;;;;45.85;12.80;;;5.30;99.90;;;;;;5022978;28;20345;-72
2024/03/06 05:59:11;;;;;;;19.42;13.85;;;5.30;99.90;;;;;;5025562;28;20701;-72
2024/03/06 06:01:56;;;;;;;27.73;15.20;;;5.30;99.90;;;;;;5026907;28;20214;-72
2024/03/06 06:04:42;;;;;;;77.23;14.27;;;5.20;99.90;;;;;;5025098;28;20743;-74
2024/03/06 06:07:28;;;;;;;50.25;13.95;;;5.10;99.90;;;;;;5025753;28;20478;-72
2024/03/06 06:10:14;;;;;;;20.80;14.55;;;5.00;99.90;;;;;;5023804;28;20203;-75
2024/03/06 06:12:59;;;;;;;21.33;15.65;;;5.00;99.90;;;;;;5025126;28;20807;-73
2024/03/06 06:15:46;;;;;;;23.20;15.45;;;5.00;99.90;;;;;;5026373;28;20571;-73
2024/03/06 06:18:32;;;;;;;20.50;14.23;;;5.10;99.90;;;;;;5026820;28;20226;-72
2024/03/06 06:21:18;;;;;;;22.65;14.60;;;5.10;99.90;;;;;;5024465;28;20552;-73
2024/03/06 06:24:04;;;;;;;20.27;15.02;;;5.20;99.90;;;;;;5028537;28;20210;-73
2024/03/06 06:26:50;;;;;;;21.10;14.93;;;5.30;99.90;;;;;;5023241;28;20275;-72
2024/03/06 06:29:36;;;;;;;22.00;15.82;;;5.40;99.90;;;;;;5023837;28;20330;-73
2024/03/06 06:32:23;;;;;;;24.57;16.70;;;5.40;99.90;;;;;;5026577;28;20214;-73
2024/03/06 06:35:11;;;;;;;28.05;14.93;;;5.40;99.90;;;;;;5022845;28;20540;-73
2024/03/06 06:37:57;;;;;;;23.90;15.52;;;5.40;99.90;;;;;;5026016;28;20263;-73
2024/03/06 06:40:42;;;;;;;21.70;15.07;;;5.40;99.90;;;;;;5022426;28;20276;-73
2024/03/06 06:43:28;;;;;;;18.37;14.27;;;5.40;99.90;;;;;;5020309;28;20215;-73
2024/03/06 06:46:14;;;;;;;17.98;13.50;;;5.30;99.90;;;;;;5023085;28;20450;-73
2024/03/06 06:49:01;;;;;;;18.40;13.37;;;5.20;99.90;;;;;;5025175;28;20237;-74
2024/03/06 06:51:46;;;;;;;16.00;12.43;;;5.10;99.90;;;;;;5026487;28;20457;-73
2024/03/06 06:54:33;;;;;;;23.60;12.87;;;5.20;99.90;;;;;;5022538;28;20214;-74
2024/03/06 06:57:19;;;;;;;17.20;13.63;;;5.20;99.90;;;;;;5028225;28;20461;-72
2024/03/06 07:00:10;;;;;;;19.45;13.35;;;5.30;99.90;;;;;;5025148;28;20223;-73
2024/03/06 07:02:58;;;;;;;21.13;14.60;;;5.40;99.90;;;;;;5027678;28;20205;-74
2024/03/06 07:05:45;;;;;;;16.58;12.43;;;5.50;99.90;;;;;;5025427;28;20447;-75
2024/03/06 07:08:30;;;;;;;15.88;12.02;;;5.60;99.90;;;;;;5022626;28;20230;-74
2024/03/06 07:11:18;;;;;;;22.35;12.15;;;5.60;99.90;;;;;;5021743;28;20207;-74
2024/03/06 07:14:04;;;;;;;18.23;14.02;;;5.60;99.90;;;;;;5021556;28;20210;-74
2024/03/06 07:16:49;;;;;;;17.25;13.05;;;5.60;99.90;;;;;;5020186;28;20227;-73
2024/03/06 07:19:35;;;;;;;18.87;13.73;;;5.70;99.90;;;;;;5025432;28;20214;-72
2024/03/06 07:22:22;;;;;;;27.55;14.80;;;5.70;99.90;;;;;;5027629;28;20559;-72
2024/03/06 07:25:09;;;;;;;21.10;15.30;;;5.70;99.90;;;;;;5026237;28;20290;-73
2024/03/06 07:27:55;;;;;;;18.27;15.57;;;5.70;99.90;;;;;;5023180;28;20474;-75
2024/03/06 07:30:41;;;;;;;16.93;13.73;;;5.70;99.90;;;;;;5022066;28;20460;-76
2024/03/06 07:33:26;;;;;;;18.10;14.13;;;5.70;99.90;;;;;;5023522;28;20450;-72
2024/03/06 07:36:12;;;;;;;19.07;14.13;;;5.60;99.90;;;;;;5030978;28;20460;-75
2024/03/06 07:38:59;;;;;;;19.07;14.27;;;5.70;99.90;;;;;;5022902;28;20477;-73
2024/03/06 07:41:45;;;;;;;19.02;13.70;;;5.80;99.90;;;;;;5020211;28;21214;-73
2024/03/06 07:44:30;;;;;;;19.17;14.03;;;5.90;99.90;;;;;;5026688;28;20685;-72
2024/03/06 07:47:16;;;;;;;26.20;13.70;;;5.90;99.90;;;;;;5022513;28;20687;-73
2024/03/06 07:50:02;;;;;;;25.83;15.17;;;5.90;99.90;;;;;;5025169;28;20807;-73
2024/03/06 07:52:47;;;;;;;25.93;14.30;;;6.00;99.90;;;;;;5026908;28;21563;-73
2024/03/06 07:55:34;;;;;;;23.93;16.13;;;5.90;99.90;;;;;;5026614;28;20596;-73
2024/03/06 07:58:21;;;;;;;18.60;15.30;;;5.90;99.90;;;;;;5017351;28;20477;-73
2024/03/06 08:01:07;;;;;;;19.35;14.85;;;5.90;99.90;;;;;;5016651;28;20474;-75
2024/03/06 08:03:53;;;;;;;21.02;14.30;;;6.00;99.90;;;;;;5029093;28;20221;-73
2024/03/06 08:06:39;;;;;;;18.88;14.65;;;6.00;99.90;;;;;;5023946;28;20219;-73
2024/03/06 08:09:28;;;;;;;17.90;14.30;;;6.10;99.90;;;;;;5029868;28;20281;-72
2024/03/06 08:12:15;;;;;;;21.97;14.90;;;6.20;99.90;;;;;;5029332;28;21016;-72
2024/03/06 08:15:01;;;;;;;16.50;13.30;;;6.30;99.90;;;;;;5027914;28;21128;-73
2024/03/06 08:17:47;;;;;;;14.93;13.20;;;6.40;99.90;;;;;;5023264;28;20474;-73
2024/03/06 08:20:33;;;;;;;18.97;13.40;;;6.40;99.90;;;;;;5026286;28;20469;-73
2024/03/06 08:23:18;;;;;;;17.63;13.57;;;6.50;99.90;;;;;;5028898;28;20436;-73
2024/03/06 08:26:04;;;;;;;15.20;12.47;;;6.60;99.90;;;;;;5033573;28;20460;-74
2024/03/06 08:28:52;;;;;;;17.10;12.53;;;6.60;99.90;;;;;;5024099;28;20477;-73
2024/03/06 08:31:37;;;;;;;14.43;12.77;;;6.60;99.90;;;;;;5022631;28;20445;-73
2024/03/06 08:34:24;;;;;;;19.57;13.37;;;6.70;99.90;;;;;;5029363;28;20439;-74
2024/03/06 08:37:09;;;;;;;24.50;17.03;;;6.70;99.90;;;;;;5029541;28;20445;-73
2024/03/06 08:39:55;;;;;;;20.00;14.18;;;6.80;99.90;;;;;;5027359;28;20448;-72
2024/03/06 08:42:41;;;;;;;22.92;14.73;;;6.90;99.90;;;;;;5022342;28;20335;-73
2024/03/06 08:45:28;;;;;;;22.45;15.55;;;7.00;99.90;;;;;;5022560;28;21053;-73
2024/03/06 08:48:13;;;;;;;23.80;17.53;;;7.00;99.90;;;;;;5023477;28;20233;-72
2024/03/06 08:50:59;;;;;;;24.17;16.77;;;7.10;99.90;;;;;;5023968;28;20564;-73
2024/03/06 08:53:45;;;;;;;24.40;18.37;;;7.20;99.90;;;;;;5027146;28;21049;-72
2024/03/06 08:56:30;;;;;;;25.97;17.40;;;7.30;99.90;;;;;;5029325;28;20751;-73
2024/03/06 08:59:16;;;;;;;23.93;17.67;;;7.40;99.90;;;;;;5020294;28;20465;-73
2024/03/06 09:02:14;;;;;;;27.23;17.27;;;7.50;99.90;;;;;;5021571;28;21172;-73
2024/03/06 09:05:00;;;;;;;28.10;17.00;;;7.60;99.90;;;;;;5028672;28;20448;-75
2024/03/06 09:07:46;;;;;;;20.05;15.60;;;7.70;99.90;;;;;;5027441;28;20245;-74
2024/03/06 09:10:33;;;;;;;21.33;15.25;;;7.80;99.90;;;;;;5022656;28;20259;-76
2024/03/06 09:13:19;;;;;;;24.73;15.27;;;7.90;99.90;;;;;;5030857;28;20384;-73
2024/03/06 09:16:05;;;;;;;29.00;17.07;;;8.00;99.90;;;;;;5026996;28;20453;-73
2024/03/06 09:18:52;;;;;;;28.87;16.20;;;8.20;99.90;;;;;;5022623;28;20456;-73
2024/03/06 09:21:37;;;;;;;21.30;14.53;;;8.30;99.90;;;;;;5022429;28;21044;-73
2024/03/06 09:24:24;;;;;;;18.60;13.00;;;8.50;99.90;;;;;;5022479;28;20586;-76
2024/03/06 09:27:10;;;;;;;21.57;13.30;;;8.70;99.90;;;;;;5022163;28;20443;-73
2024/03/06 09:29:56;;;;;;;21.37;13.93;;;8.80;99.90;;;;;;5020417;28;20460;-74
2024/03/06 09:32:44;;;;;;;17.10;13.37;;;9.00;99.90;;;;;;5024288;28;21049;-73
2024/03/06 09:35:32;;;;;;;19.27;13.97;;;9.10;99.90;;;;;;5019657;28;20513;-75
2024/03/06 09:38:18;;;;;;;18.13;14.03;;;9.30;99.90;;;;;;5024467;28;20935;-75
2024/03/06 09:41:04;;;;;;;20.93;14.13;;;9.30;99.90;;;;;;5027055;28;21047;-75
2024/03/06 09:43:50;;;;;;;24.83;14.83;;;9.40;99.90;;;;;;5019456;28;20445;-75
2024/03/06 09:46:36;;;;;;;18.87;14.53;;;9.40;99.90;;;;;;5020998;28;20459;-75
2024/03/06 09:49:23;;;;;;;18.03;12.67;;;9.40;99.90;;;;;;5021557;28;20556;-74
2024/03/06 09:52:11;;;;;;;23.90;14.40;;;9.40;99.90;;;;;;5021218;28;20450;-73
2024/03/06 09:54:58;;;;;;;17.50;15.07;;;9.50;99.90;;;;;;5024318;28;20655;-71
2024/03/06 09:57:44;;;;;;;19.40;13.90;;;9.60;99.90;;;;;;5027218;28;20615;-74
2024/03/06 10:00:32;;;;;;;23.87;15.40;;;9.60;99.90;;;;;;5022111;28;20464;-75
2024/03/06 10:03:18;;;;;;;19.70;14.93;;;9.60;99.90;;;;;;5024408;28;20471;-74
2024/03/06 10:06:04;;;;;;;22.57;16.77;;;9.50;99.90;;;;;;5023357;28;20497;-75
2024/03/06 10:08:51;;;;;;;21.77;15.17;;;9.50;99.90;;;;;;5022517;28;21136;-75
2024/03/06 10:11:40;;;;;;;21.03;15.57;;;9.50;99.90;;;;;;5026690;28;20582;-74
2024/03/06 10:14:26;;;;;;;25.50;16.07;;;9.60;99.90;;;;;;5024859;28;20447;-75
2024/03/06 10:17:11;;;;;;;24.77;16.30;;;9.60;99.90;;;;;;5026904;28;20567;-74
2024/03/06 10:20:01;;;;;;;24.57;15.97;;;9.60;99.90;;;;;;5023556;28;20455;-75
2024/03/06 10:22:49;;;;;;;23.57;15.90;;;9.60;99.90;;;;;;5021952;28;20491;-75
2024/03/06 10:25:36;;;;;;;25.87;16.43;;;9.60;99.90;;;;;;5023444;28;20466;-75
2024/03/06 10:28:23;;;;;;;27.30;17.03;;;9.70;99.90;;;;;;5027460;28;20482;-75
2024/03/06 10:31:09;;;;;;;27.83;15.87;;;9.70;99.90;;;;;;5021117;28;20952;-75
2024/03/06 10:33:55;;;;;;;24.27;15.80;;;9.70;99.90;;;;;;5021819;28;20450;-74
2024/03/06 10:36:43;;;;;;;23.90;16.50;;;9.70;99.90;;;;;;5023151;28;20826;-74
2024/03/06 10:39:30;;;;;;;27.37;17.50;;;9.70;99.90;;;;;;5025475;28;20902;-74
2024/03/06 10:42:18;;;;;;;24.20;15.90;;;9.80;99.90;;;;;;5026271;28;20502;-75
2024/03/06 10:45:06;;;;;;;20.40;13.87;;;9.90;99.90;;;;;;5023339;28;20651;-74
2024/03/06 10:47:53;;;;;;;22.00;15.77;;;10.00;99.90;;;;;;5026424;28;20477;-75
2024/03/06 10:50:43;;;;;;;23.97;16.43;;;10.20;99.90;;;;;;5022200;28;20452;-74
2024/03/06 10:53:29;;;;;;;20.53;15.37;;;10.40;99.90;;;;;;5020848;28;20467;-75
2024/03/06 10:56:17;;;;;;;25.40;17.27;;;10.60;99.90;;;;;;5022476;28;20484;-75
2024/03/06 10:59:05;;;;;;;23.63;16.07;;;10.70;99.90;;;;;;5020176;28;20488;-74
2024/03/06 11:01:51;;;;;;;21.20;14.70;;;10.70;99.90;;;;;;5021786;28;20495;-73
2024/03/06 11:04:40;;;;;;;22.40;15.37;;;10.70;99.90;;;;;;5021329;28;20594;-74
2024/03/06 11:07:27;;;;;;;24.27;17.77;;;10.60;99.90;;;;;;5023285;28;20462;-75
2024/03/06 11:10:16;;;;;;;22.03;17.47;;;10.50;99.90;;;;;;5022326;28;20537;-73
2024/03/06 11:13:04;;;;;;;20.90;16.00;;;10.70;99.90;;;;;;5021772;28;20455;-73
2024/03/06 11:15:53;;;;;;;24.40;16.97;;;10.80;99.90;;;;;;5024368;28;20457;-73
2024/03/06 11:18:44;;;;;;;30.70;17.70;;;10.90;99.90;;;;;;5022311;28;20621;-75
2024/03/06 11:21:30;;;;;;;21.80;15.13;;;11.00;99.90;;;;;;5027263;28;20475;-74
2024/03/06 11:24:21;;;;;;;24.60;15.40;;;11.00;99.90;;;;;;5032731;28;20429;-75
2024/03/06 11:27:07;;;;;;;20.13;15.10;;;11.00;99.90;;;;;;5032244;28;20458;-75
2024/03/06 11:30:10;;;;;;;25.20;16.60;;;10.90;99.90;;;;;;5035059;28;20798;-75
2024/03/06 11:33:02;;;;;;;24.60;16.57;;;10.80;99.90;;;;;;5036763;28;20798;-74
2024/03/06 11:36:18;;;;;;;22.67;16.53;;;10.80;99.90;;;;;;5028418;28;20510;-74
2024/03/06 11:39:06;;;;;;;23.90;15.20;;;10.80;99.90;;;;;;5035226;28;20491;-74
2024/03/06 11:41:52;;;;;;;23.37;16.60;;;10.80;99.90;;;;;;5039552;28;20469;-74
2024/03/06 11:44:38;;;;;;;21.10;15.00;;;10.80;99.90;;;;;;5036928;28;20450;-73
2024/03/06 11:47:24;;;;;;;18.03;13.77;;;10.80;99.90;;;;;;5031211;28;20446;-74
2024/03/06 11:50:12;;;;;;;20.37;15.07;;;10.80;99.90;;;;;;5031565;28;20952;-75
2024/03/06 11:52:57;;;;;;;27.07;18.47;;;10.90;99.90;;;;;;5033127;28;20966;-75
2024/03/06 11:55:43;;;;;;;27.43;18.90;;;10.80;99.90;;;;;;5032739;28;20440;-75
2024/03/06 11:58:29;;;;;;;34.60;18.80;;;10.60;99.90;;;;;;5031207;28;20947;-75
2024/03/06 12:01:16;;;;;;;27.90;19.20;;;10.50;99.90;;;;;;5033295;28;20421;-74
2024/03/06 12:04:02;;;;;;;33.10;19.60;;;10.40;99.90;;;;;;5032786;28;20537;-75
2024/03/06 12:06:49;;;;;;;26.57;18.50;;;10.30;99.90;;;;;;5038265;28;20833;-73
2024/03/06 12:09:35;;;;;;;30.93;19.30;;;10.20;99.90;;;;;;5033994;28;20783;-74
2024/03/06 12:12:21;;;;;;;28.20;19.60;;;10.30;99.90;;;;;;5034788;28;20431;-74
2024/03/06 12:15:11;;;;;;;29.03;18.17;;;10.20;99.90;;;;;;5023004;28;20965;-73
2024/03/06 12:17:56;;;;;;;24.23;17.53;;;10.20;99.90;;;;;;5023884;28;20533;-70
2024/03/06 12:20:45;;;;;;;29.03;18.53;;;10.20;99.90;;;;;;5029367;28;20455;-71
2024/03/06 12:23:32;;;;;;;29.27;18.53;;;10.30;99.90;;;;;;5028459;28;20486;-70
2024/03/06 12:26:23;;;;;;;23.47;16.77;;;10.40;99.90;;;;;;5027736;28;20479;-73
2024/03/06 12:29:11;;;;;;;27.27;17.50;;;10.40;99.90;;;;;;5024409;28;20461;-73
2024/03/06 12:31:57;;;;;;;26.00;16.63;;;10.50;99.90;;;;;;5023764;28;20450;-75
2024/03/06 12:34:42;;;;;;;23.23;15.93;;;10.50;99.90;;;;;;5021985;28;20471;-75
2024/03/06 12:37:32;;;;;;;22.67;16.17;;;10.50;99.90;;;;;;5021293;28;20487;-74
2024/03/06 12:40:19;;;;;;;24.37;17.20;;;10.60;99.90;;;;;;5025427;28;20451;-74
2024/03/06 12:43:05;;;;;;;21.73;14.40;;;10.50;99.90;;;;;;5023074;28;21046;-75
2024/03/06 12:45:54;;;;;;;23.50;16.60;;;10.60;99.90;;;;;;5022881;28;20565;-75
2024/03/06 12:48:39;;;;;;;23.57;14.60;;;10.60;99.90;;;;;;5023484;28;20608;-75
2024/03/06 12:51:25;;;;;;;27.43;16.27;;;10.70;99.90;;;;;;5022033;28;20454;-75
2024/03/06 12:54:11;;;;;;;23.00;15.10;;;10.70;99.90;;;;;;5025658;28;21018;-75
2024/03/06 12:56:58;;;;;;;24.73;14.80;;;10.70;99.90;;;;;;5022199;28;20487;-74
2024/03/06 12:59:43;;;;;;;20.27;14.60;;;10.80;99.90;;;;;;5021282;28;20550;-73
2024/03/06 13:02:29;;;;;;;23.90;16.20;;;10.80;99.90;;;;;;5022306;28;20489;-72
2024/03/06 13:05:15;;;;;;;22.03;15.77;;;10.90;99.90;;;;;;5028657;28;20471;-75
2024/03/06 13:08:00;;;;;;;21.27;15.07;;;11.00;99.90;;;;;;5028070;28;20478;-75
2024/03/06 13:10:46;;;;;;;21.80;14.90;;;11.00;99.90;;;;;;5025771;28;20459;-73
2024/03/06 13:13:34;;;;;;;19.00;14.63;;;11.00;99.90;;;;;;5025600;28;20585;-72
2024/03/06 13:16:19;;;;;;;21.43;14.77;;;11.10;99.90;;;;;;5029903;28;20905;-73
2024/03/06 13:19:05;;;;;;;23.60;17.23;;;11.10;99.90;;;;;;5028830;28;20479;-75
2024/03/06 13:21:52;;;;;;;20.10;14.70;;;11.10;99.90;;;;;;5028612;28;20936;-75
2024/03/06 13:24:38;;;;;;;19.93;12.77;;;11.00;99.90;;;;;;5029315;28;20834;-75
2024/03/06 13:27:23;;;;;;;21.57;14.07;;;11.00;99.90;;;;;;5028919;28;20447;-75
2024/03/06 13:30:12;;;;;;;22.17;13.70;;;11.00;99.90;;;;;;5027742;28;20973;-73
2024/03/06 13:32:57;;;;;;;25.07;16.80;;;11.00;99.90;;;;;;5022235;28;20524;-75
2024/03/06 13:35:43;;;;;;;23.27;15.87;;;11.00;99.90;;;;;;5028511;28;21520;-75
2024/03/06 13:38:29;;;;;;;24.63;16.50;;;11.10;99.90;;;;;;5026452;28;20833;-74
2024/03/06 13:41:14;;;;;;;21.30;15.30;;;11.10;99.90;;;;;;5021691;28;20799;-74
2024/03/06 13:44:00;;;;;;;26.83;17.23;;;11.10;99.90;;;;;;5021562;28;20478;-74
2024/03/06 13:46:47;;;;;;;23.43;16.03;;;11.10;99.90;;;;;;5021501;28;20495;-75
2024/03/06 13:49:37;;;;;;;23.70;15.77;;;11.10;99.90;;;;;;5022621;28;20810;-75
2024/03/06 13:52:23;;;;;;;22.33;15.30;;;11.00;99.90;;;;;;5028046;28;20476;-73
2024/03/06 13:55:10;;;;;;;22.87;14.37;;;11.00;99.90;;;;;;5022226;28;20794;-75
2024/03/06 13:57:55;;;;;;;24.87;16.27;;;11.10;99.90;;;;;;5024162;28;20478;-75
2024/03/06 14:00:41;;;;;;;28.67;15.07;;;11.00;99.90;;;;;;5022348;28;20556;-72
2024/03/06 14:03:28;;;;;;;19.47;13.80;;;11.00;99.90;;;;;;5021744;28;20510;-71
2024/03/06 14:06:14;;;;;;;24.90;16.70;;;11.10;99.90;;;;;;5023216;28;20471;-75
2024/03/06 14:09:00;;;;;;;23.57;14.83;;;11.00;99.90;;;;;;5021871;28;20471;-74
2024/03/06 14:11:45;;;;;;;19.27;14.10;;;11.00;99.90;;;;;;5022587;28;20761;-75
2024/03/06 14:14:31;;;;;;;23.27;15.73;;;10.90;99.90;;;;;;5019734;28;21003;-71